Avon, South Dakota
Current Conditions -  °F | °C
As of 3:15 PM on Saturday 22 Nov 2014 (Local Time) from KYKN Reporting Station
Clear Clear  
Wind Chill: 11°   Ceiling: Unl
Heat Index: 11°   Visibility: 10mi
Dew Point:   Wind: 20mph
Humidity: 54%   Direction: 180°S
Pressure: 29.53"   Gusts: 25mph
Location:  43.01°N, 98.06°W
Report Text: KYKN 222115Z AUTO 18017G22KT 10SM CLR 11/02 A2953 RMK AO1
Loading
Personal Weather Stations






























Interactive Weather Map New forecast layout! Learn more

10-Day Weather Forecast

Advertisements
Track Severe Weather on mobile